Time;durP1;ratioP1;P1;durP2;ratioP2;P2;SDS_P1;SDS_P2;PMS_P1;PMS_P2;Temp;Humidity;BMP_temperature;BMP_pressure;BME280_temperature;BME280_humidity;BME280_pressure;Samples;Min_cycle;Max_cycle;Signal;HPM_P1;HPM_P2
2022/02/14 00:02:05;;;;;;;11.68;5.60;;;;;;;-1.30;87.73;96190.16;5022883;28;20041;-73
2022/02/14 00:04:31;;;;;;;14.88;5.25;;;;;;;-1.26;87.65;96178.50;5013413;28;20034;-66
2022/02/14 00:06:56;;;;;;;9.15;5.15;;;;;;;-1.32;88.07;96179.69;5019166;28;20910;-66
2022/02/14 00:09:22;;;;;;;10.45;5.40;;;;;;;-1.45;87.87;96177.84;5023162;28;20462;-68
2022/02/14 00:11:48;;;;;;;14.23;5.53;;;;;;;-1.43;88.27;96173.75;5014950;28;20073;-69
2022/02/14 00:14:13;;;;;;;9.98;5.82;;;;;;;-1.41;89.29;96170.78;5011178;28;20038;-66
2022/02/14 00:16:39;;;;;;;13.48;6.40;;;;;;;-1.49;90.18;96177.66;5013480;28;20045;-66
2022/02/14 00:19:04;;;;;;;9.13;5.28;;;;;;;-1.59;91.10;96169.81;5013847;28;20133;-73
2022/02/14 00:21:30;;;;;;;10.93;5.93;;;;;;;-1.56;91.74;96170.00;5018151;28;20051;-65
2022/02/14 00:23:55;;;;;;;10.90;5.53;;;;;;;-1.73;91.77;96167.94;5018295;28;20042;-67
2022/02/14 00:26:21;;;;;;;14.82;5.95;;;;;;;-1.77;92.90;96166.94;5008581;28;20105;-67
2022/02/14 00:28:46;;;;;;;10.55;5.55;;;;;;;-1.80;93.22;96148.75;5019501;28;20041;-65
2022/02/14 00:31:12;;;;;;;11.18;5.40;;;;;;;-1.87;93.38;96151.06;5008051;28;20045;-67
2022/02/14 00:33:37;;;;;;;12.48;6.70;;;;;;;-2.06;94.41;96161.88;5021770;28;20068;-67
2022/02/14 00:36:03;;;;;;;8.95;5.72;;;;;;;-2.13;95.64;96158.81;5021396;28;20073;-73
2022/02/14 00:38:29;;;;;;;11.38;5.90;;;;;;;-2.01;96.29;96159.13;5013097;28;20052;-69
2022/02/14 00:40:54;;;;;;;13.13;6.88;;;;;;;-1.88;95.62;96151.34;5010374;28;20041;-66
2022/02/14 00:43:20;;;;;;;10.23;5.85;;;;;;;-1.84;95.13;96146.97;5013520;28;20418;-66
2022/02/14 00:45:47;;;;;;;11.77;5.45;;;;;;;-1.90;95.17;96148.97;5012508;28;20045;-66
2022/02/14 00:48:12;;;;;;;12.00;6.75;;;;;;;-1.88;94.51;96143.31;5006580;28;20128;-67
2022/02/14 00:50:38;;;;;;;10.77;5.57;;;;;;;-2.02;95.69;96149.47;5018214;28;20541;-69
2022/02/14 00:53:04;;;;;;;15.15;5.97;;;;;;;-2.00;95.77;96144.59;5008557;28;20129;-73
2022/02/14 00:55:30;;;;;;;11.80;5.70;;;;;;;-2.00;95.71;96146.47;5014824;28;20108;-64
2022/02/14 00:57:56;;;;;;;14.18;6.82;;;;;;;-2.08;95.79;96144.50;5012638;28;20049;-66
2022/02/14 01:00:22;;;;;;;10.10;5.78;;;;;;;-2.02;96.45;96140.63;5011484;28;20525;-68
2022/02/14 01:02:47;;;;;;;12.77;6.80;;;;;;;-2.00;96.62;96144.59;5010824;28;20049;-69
2022/02/14 01:05:13;;;;;;;13.32;7.22;;;;;;;-1.95;96.55;96130.28;5003789;28;20084;-64
2022/02/14 01:07:39;;;;;;;10.38;6.43;;;;;;;-1.97;96.14;96143.22;5010286;28;20475;-66
2022/02/14 01:10:10;;;;;;;10.90;6.85;;;;;;;-2.01;96.67;96134.16;5000448;28;20048;-72
2022/02/14 01:12:40;;;;;;;10.73;6.20;;;;;;;-1.94;96.11;96131.88;5009123;28;20045;-67
2022/02/14 01:15:07;;;;;;;11.68;6.80;;;;;;;-1.89;95.75;96128.28;5001764;28;20062;-66
2022/02/14 01:17:35;;;;;;;11.88;6.22;;;;;;;-1.97;95.41;96119.06;5030646;23;20056;-68
2022/02/14 01:20:01;;;;;;;11.93;6.68;;;;;;;-2.01;95.87;96124.22;5020890;28;20041;-66
2022/02/14 01:22:27;;;;;;;11.32;6.55;;;;;;;-2.11;95.97;96121.72;5011815;28;20041;-67
2022/02/14 01:24:52;;;;;;;9.98;6.78;;;;;;;-2.05;96.40;96122.44;5021477;28;20047;-65
2022/02/14 01:27:18;;;;;;;13.10;6.57;;;;;;;-2.09;96.78;96122.22;5015811;28;20140;-63
2022/02/14 01:29:43;;;;;;;11.35;7.28;;;;;;;-2.18;96.95;96124.03;5023284;28;20145;-67
2022/02/14 01:32:09;;;;;;;12.35;6.78;;;;;;;-2.36;98.21;96115.78;5017795;28;20045;-68
2022/02/14 01:34:34;;;;;;;15.43;7.25;;;;;;;-2.48;99.04;96120.84;5022310;28;20103;-67
2022/02/14 01:37:00;;;;;;;15.18;7.18;;;;;;;-2.45;100.00;96117.56;5037099;28;20073;-66
2022/02/14 01:39:28;;;;;;;11.13;6.93;;;;;;;-2.36;99.83;96117.66;5024300;28;20084;-67
2022/02/14 01:41:55;;;;;;;11.85;6.90;;;;;;;-2.30;99.81;96113.81;5023403;28;20045;-66
2022/02/14 01:44:41;;;;;;;11.68;6.65;;;;;;;-2.27;99.50;96113.19;5017180;28;20038;-67
2022/02/14 01:47:15;;;;;;;17.90;6.28;;;;;;;-2.31;99.05;96104.94;5017209;28;20073;-68
2022/02/14 01:49:41;;;;;;;11.48;6.82;;;;;;;-2.20;98.69;96105.53;5023228;28;20048;-66
2022/02/14 01:52:08;;;;;;;12.73;6.30;;;;;;;-2.24;98.40;96101.88;5026074;28;20049;-66
2022/02/14 01:54:38;;;;;;;13.18;6.20;;;;;;;-2.33;98.93;96098.31;5023847;28;20541;-65
2022/02/14 01:57:04;;;;;;;10.98;6.88;;;;;;;-2.34;99.09;96096.69;5021993;28;20077;-72
2022/02/14 01:59:31;;;;;;;10.57;6.60;;;;;;;-2.46;99.43;96091.84;5023070;28;20065;-67
2022/02/14 02:01:57;;;;;;;12.70;7.03;;;;;;;-2.47;100.00;96089.44;5027214;28;20132;-66
2022/02/14 02:04:23;;;;;;;16.63;7.25;;;;;;;-2.48;99.68;96085.97;5033991;28;20065;-67
2022/02/14 02:06:48;;;;;;;9.98;6.45;;;;;;;-2.49;99.89;96087.06;5026570;28;20048;-67
2022/02/14 02:09:14;;;;;;;13.05;6.93;;;;;;;-2.46;99.93;96081.13;5015617;28;20076;-66
2022/02/14 02:14:24;;;;;;;13.60;7.10;;;;;;;-2.43;100.00;96083.22;5017579;28;20045;-66
2022/02/14 02:16:50;;;;;;;12.38;7.65;;;;;;;-2.39;100.00;96089.56;5022569;28;20052;-66
2022/02/14 02:19:17;;;;;;;14.07;7.50;;;;;;;-2.42;100.00;96084.00;5019514;28;20080;-65
2022/02/14 02:21:49;;;;;;;19.88;7.90;;;;;;;-2.41;100.00;96083.69;5025385;28;20602;-64
2022/02/14 02:24:20;;;;;;;11.57;7.03;;;;;;;-2.49;100.00;96068.28;5013043;28;20042;-66
2022/02/14 02:26:54;;;;;;;12.85;7.55;;;;;;;-2.47;100.00;96078.72;5037847;28;20046;-64
2022/02/14 02:29:20;;;;;;;12.68;7.05;;;;;;;-2.49;100.00;96073.66;5016211;28;20030;-64
2022/02/14 02:31:45;;;;;;;12.30;6.80;;;;;;;-2.58;100.00;96070.09;5021720;28;20379;-66
2022/02/14 02:34:10;;;;;;;13.90;7.05;;;;;;;-2.57;100.00;96067.09;5017095;28;20443;-66
2022/02/14 02:36:50;;;;;;;17.33;7.65;;;;;;;-2.65;100.00;96067.78;5031745;28;20146;-64
2022/02/14 02:39:15;;;;;;;11.77;7.20;;;;;;;-2.65;100.00;96061.63;5036487;28;20041;-66
2022/02/14 02:41:41;;;;;;;15.32;7.13;;;;;;;-2.55;100.00;96056.88;5039998;28;20513;-66
2022/02/14 02:44:07;;;;;;;13.40;6.93;;;;;;;-2.51;100.00;96065.91;5035684;28;20142;-68
2022/02/14 02:46:32;;;;;;;14.52;7.28;;;;;;;-2.61;100.00;96058.06;5039151;28;20041;-66
2022/02/14 02:49:21;;;;;;;15.20;7.57;;;;;;;-2.77;100.00;96054.88;5040355;28;20040;-68
2022/02/14 02:51:49;;;;;;;13.57;7.03;;;;;;;-2.71;100.00;96055.59;5040507;28;20472;-66
2022/02/14 02:54:16;;;;;;;13.25;7.22;;;;;;;-2.85;100.00;96050.19;5036422;28;20052;-67
2022/02/14 02:56:45;;;;;;;11.82;7.40;;;;;;;-3.01;100.00;96056.94;5039816;28;20107;-67
2022/02/14 02:59:11;;;;;;;12.70;7.05;;;;;;;-3.11;100.00;96055.22;5036347;28;20056;-66
2022/02/14 03:01:38;;;;;;;13.68;7.60;;;;;;;-3.05;100.00;96048.69;5040497;28;20052;-63
2022/02/14 03:04:05;;;;;;;12.23;7.05;;;;;;;-2.94;100.00;96046.63;5034147;28;20079;-71
2022/02/14 03:06:31;;;;;;;10.40;7.15;;;;;;;-2.88;100.00;96051.59;5019369;28;20041;-63
2022/02/14 03:08:57;;;;;;;9.45;5.97;;;;;;;-2.89;100.00;96041.97;5020238;28;20037;-64
2022/02/14 03:11:23;;;;;;;12.40;6.78;;;;;;;-2.84;100.00;96053.69;5013003;28;20523;-66
2022/02/14 03:13:49;;;;;;;11.90;6.70;;;;;;;-3.11;100.00;96041.84;5023924;28;20051;-64
2022/02/14 03:16:15;;;;;;;10.18;6.30;;;;;;;-3.25;100.00;96044.47;5030344;28;20536;-70
2022/02/14 03:18:41;;;;;;;12.52;6.75;;;;;;;-3.35;100.00;96037.41;5039486;28;20455;-68
2022/02/14 03:21:07;;;;;;;11.77;6.63;;;;;;;-3.44;100.00;96046.41;5017368;28;20053;-68
2022/02/14 03:23:33;;;;;;;11.73;6.70;;;;;;;-3.43;100.00;96040.75;5029475;28;20094;-67
2022/02/14 03:25:59;;;;;;;14.45;7.72;;;;;;;-3.57;100.00;96038.00;5027047;28;20049;-67
2022/02/14 03:28:25;;;;;;;12.13;6.85;;;;;;;-3.63;100.00;96041.88;5015779;28;20084;-65
2022/02/14 03:30:51;;;;;;;13.48;6.60;;;;;;;-3.48;100.00;96036.25;5044151;28;20462;-64
2022/02/14 03:33:16;;;;;;;10.55;6.68;;;;;;;-3.49;100.00;96040.03;5021004;28;20048;-64
2022/02/14 03:35:42;;;;;;;11.00;6.07;;;;;;;-3.48;100.00;96040.81;5028878;28;20050;-66
2022/02/14 03:38:07;;;;;;;9.98;6.00;;;;;;;-3.41;100.00;96043.13;5030080;28;20052;-68
2022/02/14 03:40:34;;;;;;;11.55;6.28;;;;;;;-3.32;100.00;96034.13;5033393;28;20432;-66
2022/02/14 03:43:01;;;;;;;12.23;6.53;;;;;;;-3.47;100.00;96042.44;5018333;28;20049;-64
2022/02/14 03:45:26;;;;;;;11.25;6.25;;;;;;;-3.46;100.00;96031.44;5022911;28;20104;-63
2022/02/14 03:47:52;;;;;;;12.93;6.18;;;;;;;-3.41;100.00;96032.44;5027007;28;20584;-67
2022/02/14 03:50:19;;;;;;;14.23;6.38;;;;;;;-3.27;100.00;96035.94;5023644;28;20429;-64
2022/02/14 03:52:45;;;;;;;15.00;6.93;;;;;;;-3.23;100.00;96038.81;5038936;28;20099;-64
2022/02/14 03:55:11;;;;;;;13.73;5.90;;;;;;;-3.32;100.00;96026.09;5020717;28;20450;-68
2022/02/14 03:57:37;;;;;;;11.27;5.97;;;;;;;-3.11;100.00;96026.56;5027541;28;20046;-64
2022/02/14 04:00:08;;;;;;;7.38;5.25;;;;;;;-3.05;100.00;96023.78;5031652;28;20109;-70
2022/02/14 04:02:38;;;;;;;13.55;6.53;;;;;;;-3.15;100.00;96022.88;5026724;28;20729;-64
2022/02/14 04:05:04;;;;;;;12.63;5.30;;;;;;;-3.34;100.00;96024.81;5016898;28;20038;-70
2022/02/14 04:07:29;;;;;;;11.85;6.18;;;;;;;-3.47;100.00;96024.47;5020859;28;20045;-66
2022/02/14 04:09:56;;;;;;;19.77;6.75;;;;;;;-3.38;100.00;96026.50;5043007;28;20037;-66
2022/02/14 04:12:22;;;;;;;11.60;5.53;;;;;;;-3.50;100.00;96019.69;5010604;28;20412;-64
2022/02/14 04:14:47;;;;;;;13.75;6.15;;;;;;;-3.84;100.00;96014.63;5018475;28;20064;-66
2022/02/14 04:17:13;;;;;;;10.30;5.40;;;;;;;-3.79;100.00;96008.41;5014541;28;20501;-69
2022/02/14 04:19:38;;;;;;;9.32;6.50;;;;;;;-3.60;100.00;96006.50;5027605;28;20053;-66
2022/02/14 04:22:04;;;;;;;11.63;5.85;;;;;;;-3.50;100.00;96009.00;5030504;28;20127;-72
2022/02/14 04:24:29;;;;;;;13.07;6.35;;;;;;;-3.76;100.00;96003.25;5030386;28;20136;-66
2022/02/14 04:26:55;;;;;;;12.05;6.45;;;;;;;-3.79;100.00;96000.38;5027318;28;20060;-66
2022/02/14 04:29:20;;;;;;;11.48;6.72;;;;;;;-3.75;100.00;96002.16;5024672;28;20044;-65
2022/02/14 04:31:46;;;;;;;10.82;6.00;;;;;;;-3.71;100.00;95994.34;5019793;28;20075;-66
2022/02/14 04:34:12;;;;;;;10.68;5.78;;;;;;;-3.63;100.00;95987.56;5016316;28;20034;-67
2022/02/14 04:36:38;;;;;;;14.73;6.72;;;;;;;-3.52;100.00;95997.00;5030603;28;20115;-63
2022/02/14 04:39:04;;;;;;;12.48;5.63;;;;;;;-3.48;100.00;96001.44;5035684;28;20135;-71
2022/02/14 04:41:30;;;;;;;15.10;6.07;;;;;;;-3.55;100.00;95998.38;5037710;28;20107;-66
2022/02/14 04:43:55;;;;;;;12.13;5.90;;;;;;;-3.53;100.00;95996.22;5030710;28;20470;-63
2022/02/14 04:46:21;;;;;;;12.52;5.97;;;;;;;-3.74;100.00;95995.75;5027952;28;20041;-66
2022/02/14 04:48:46;;;;;;;13.63;5.78;;;;;;;-3.88;100.00;95994.88;5035333;28;20191;-66
2022/02/14 04:51:12;;;;;;;11.90;6.78;;;;;;;-3.71;100.00;95997.84;5038460;28;20504;-69
2022/02/14 04:53:37;;;;;;;12.73;6.60;;;;;;;-3.77;100.00;95992.84;5038387;28;20038;-65
2022/02/14 04:56:04;;;;;;;14.85;6.35;;;;;;;-3.67;100.00;95988.13;5027695;28;20092;-71
2022/02/14 04:58:29;;;;;;;12.77;6.63;;;;;;;-3.53;100.00;95984.69;5017906;28;20068;-66
2022/02/14 05:00:54;;;;;;;14.85;6.13;;;;;;;-3.44;100.00;95992.84;5029916;28;20046;-66
2022/02/14 05:03:20;;;;;;;14.00;5.35;;;;;;;-3.37;100.00;95983.34;5015811;28;20441;-65
2022/02/14 05:05:46;;;;;;;10.82;6.18;;;;;;;-3.22;100.00;95993.00;5045140;28;20056;-68
2022/02/14 05:08:11;;;;;;;15.55;5.82;;;;;;;-3.21;100.00;95983.06;5057998;28;20542;-65
2022/02/14 05:10:37;;;;;;;13.98;7.20;;;;;;;-3.14;100.00;95994.97;5061341;28;20113;-65
2022/02/14 05:13:02;;;;;;;14.18;6.43;;;;;;;-3.12;100.00;95992.00;5041430;28;20040;-69
2022/02/14 05:15:28;;;;;;;12.27;6.63;;;;;;;-3.35;100.00;95991.91;5030876;28;20108;-65
2022/02/14 05:17:53;;;;;;;11.35;7.05;;;;;;;-3.24;100.00;95997.06;5035420;28;20044;-64
2022/02/14 05:20:19;;;;;;;12.63;5.70;;;;;;;-3.16;100.00;95991.03;5030970;28;20405;-66
2022/02/14 05:22:44;;;;;;;13.10;6.88;;;;;;;-3.13;100.00;95996.59;5045330;28;20051;-68
2022/02/14 05:25:09;;;;;;;15.02;6.30;;;;;;;-3.08;100.00;96001.03;5024954;28;20052;-66
2022/02/14 05:27:36;;;;;;;12.50;6.43;;;;;;;-2.93;100.00;95992.72;5028983;28;20057;-66
2022/02/14 05:30:03;;;;;;;13.90;6.25;;;;;;;-2.88;100.00;95991.84;5031733;28;20561;-66
2022/02/14 05:32:29;;;;;;;10.93;6.20;;;;;;;-2.92;100.00;95990.84;5039827;28;20048;-65
2022/02/14 05:34:55;;;;;;;10.38;6.10;;;;;;;-2.85;100.00;95985.09;5031776;28;20041;-65
2022/02/14 05:37:21;;;;;;;13.57;6.60;;;;;;;-3.00;100.00;95989.66;5051510;28;20067;-67
2022/02/14 05:39:47;;;;;;;14.80;6.60;;;;;;;-2.97;100.00;95991.75;5044479;28;20049;-68
2022/02/14 05:42:13;;;;;;;12.10;6.32;;;;;;;-2.96;100.00;95996.00;5018421;28;20058;-66
2022/02/14 05:44:39;;;;;;;13.07;5.90;;;;;;;-2.97;100.00;95998.97;5032418;28;20037;-68
2022/02/14 05:47:04;;;;;;;10.00;6.30;;;;;;;-2.97;100.00;95983.72;5051642;28;20127;-70
2022/02/14 05:49:30;;;;;;;11.32;6.20;;;;;;;-3.15;100.00;95990.72;5028245;28;20127;-67
2022/02/14 05:51:55;;;;;;;10.90;6.15;;;;;;;-3.19;100.00;95984.34;5026697;28;20044;-67
2022/02/14 05:54:21;;;;;;;13.32;7.03;;;;;;;-3.06;100.00;95993.53;5023235;28;20049;-66
2022/02/14 05:56:46;;;;;;;11.45;6.28;;;;;;;-2.93;100.00;95984.69;5027999;28;20041;-66
2022/02/14 05:59:12;;;;;;;15.60;6.47;;;;;;;-3.11;100.00;95989.03;5029529;28;20049;-66
2022/02/14 06:01:38;;;;;;;11.57;6.47;;;;;;;-3.25;100.00;95985.56;5039886;28;20493;-63
2022/02/14 06:04:03;;;;;;;11.20;6.05;;;;;;;-3.02;100.00;95988.38;5025396;28;20490;-71
2022/02/14 06:06:29;;;;;;;13.40;5.82;;;;;;;-3.04;100.00;95982.50;5049766;28;20416;-64
2022/02/14 06:08:54;;;;;;;10.88;6.43;;;;;;;-3.26;100.00;95983.94;5030315;28;20045;-68
2022/02/14 06:11:21;;;;;;;14.63;6.05;;;;;;;-3.51;100.00;95985.19;5014155;28;20120;-66
2022/02/14 06:13:46;;;;;;;12.15;5.93;;;;;;;-3.53;100.00;95987.38;5020109;28;20059;-65
2022/02/14 06:16:12;;;;;;;13.40;6.45;;;;;;;-3.35;100.00;95991.91;5020442;28;20041;-64
2022/02/14 06:18:37;;;;;;;17.88;6.82;;;;;;;-3.24;100.00;95994.38;5045014;28;20053;-64
2022/02/14 06:21:03;;;;;;;14.27;6.63;;;;;;;-3.19;100.00;95989.72;5037615;28;20037;-69
2022/02/14 06:23:29;;;;;;;16.48;6.60;;;;;;;-3.08;100.00;95996.50;5039798;28;20037;-66
2022/02/14 06:25:55;;;;;;;14.50;7.40;;;;;;;-3.10;100.00;96001.34;5039899;28;20045;-65
2022/02/14 06:28:20;;;;;;;17.35;8.88;;;;;;;-3.45;100.00;95992.06;5026662;28;20123;-65
2022/02/14 06:30:46;;;;;;;24.40;12.05;;;;;;;-3.59;100.00;95996.56;5020306;28;20073;-66
2022/02/14 06:33:15;;;;;;;15.35;7.38;;;;;;;-3.81;100.00;95998.00;5014871;28;20468;-65
2022/02/14 06:35:40;;;;;;;13.82;7.35;;;;;;;-3.87;100.00;96013.31;5031890;28;20111;-64
2022/02/14 06:38:06;;;;;;;15.77;6.85;;;;;;;-3.87;100.00;95999.13;5035105;28;20045;-69
2022/02/14 06:40:32;;;;;;;13.15;6.85;;;;;;;-3.81;100.00;95997.19;5029213;28;20045;-65
2022/02/14 06:42:57;;;;;;;13.55;7.25;;;;;;;-4.07;100.00;96000.22;5021744;28;20526;-66
2022/02/14 06:45:22;;;;;;;15.10;6.75;;;;;;;-4.15;100.00;95993.66;5024357;28;20627;-67
2022/02/14 06:47:48;;;;;;;11.80;6.22;;;;;;;-3.93;100.00;95994.97;5018879;28;20041;-68
2022/02/14 06:50:15;;;;;;;10.40;5.65;;;;;;;-3.98;100.00;95992.34;5015701;28;20045;-65
2022/02/14 06:52:40;;;;;;;14.07;6.35;;;;;;;-3.89;100.00;95994.09;5009699;28;20045;-68
2022/02/14 06:55:07;;;;;;;13.55;6.30;;;;;;;-3.88;100.00;96000.25;5030656;28;20045;-68
2022/02/14 06:57:32;;;;;;;12.38;6.60;;;;;;;-3.81;100.00;95991.84;5028182;28;20042;-64
2022/02/14 06:59:58;;;;;;;18.40;6.40;;;;;;;-3.60;100.00;96009.19;5046011;28;20044;-63
2022/02/14 07:02:24;;;;;;;10.65;6.00;;;;;;;-3.19;100.00;95996.97;5021782;28;20623;-65
2022/02/14 07:04:50;;;;;;;13.95;6.07;;;;;;;-2.86;100.00;96005.75;5032754;28;20041;-64
2022/02/14 07:07:18;;;;;;;12.00;6.55;;;;;;;-3.01;100.00;96003.34;5014996;28;20041;-66
2022/02/14 07:09:46;;;;;;;16.30;6.23;;;;;;;-2.87;100.00;96004.16;5025222;28;20049;-64
2022/02/14 07:12:11;;;;;;;14.05;6.63;;;;;;;-2.76;100.00;96010.88;5031667;28;20095;-68
2022/02/14 07:14:37;;;;;;;13.05;6.50;;;;;;;-2.77;100.00;96009.31;5042759;28;20052;-64
2022/02/14 07:17:02;;;;;;;17.42;6.28;;;;;;;-2.82;100.00;96003.28;5019074;28;20439;-74
2022/02/14 07:19:28;;;;;;;16.05;8.82;;;;;;;-3.17;100.00;96000.94;5021692;23;20045;-65
2022/02/14 07:21:53;;;;;;;13.52;8.30;;;;;;;-3.19;100.00;96008.47;5009074;28;21024;-65
2022/02/14 07:24:19;;;;;;;13.63;6.95;;;;;;;-2.95;100.00;96008.31;5005254;28;20068;-63
2022/02/14 07:26:44;;;;;;;14.93;6.88;;;;;;;-3.03;100.00;95992.13;5032688;28;20570;-65
2022/02/14 07:29:09;;;;;;;11.15;6.13;;;;;;;-3.09;100.00;96010.97;5043982;28;20131;-65
2022/02/14 07:31:35;;;;;;;11.82;7.10;;;;;;;-2.59;100.00;95999.59;5018612;28;20076;-65
2022/02/14 07:34:01;;;;;;;15.32;8.25;;;;;;;-2.48;99.74;96000.19;5032179;28;20040;-64
2022/02/14 07:36:26;;;;;;;20.02;11.65;;;;;;;-2.83;100.00;95983.69;5029092;28;20092;-66
2022/02/14 07:38:53;;;;;;;15.05;7.80;;;;;;;-2.59;100.00;96006.81;5031345;28;20472;-66
2022/02/14 07:41:20;;;;;;;15.98;8.55;;;;;;;-2.12;99.82;96015.53;5035395;28;20052;-65
2022/02/14 07:43:45;;;;;;;13.93;7.03;;;;;;;-1.65;98.75;96005.31;5040508;28;20409;-65
2022/02/14 07:46:10;;;;;;;17.30;7.20;;;;;;;-1.06;96.08;96013.28;5024008;28;20041;-64
2022/02/14 07:48:37;;;;;;;15.98;7.72;;;;;;;-0.88;89.68;95998.03;5028399;28;20038;-65
2022/02/14 07:51:03;;;;;;;19.13;6.93;;;;;;;-0.73;91.28;96006.78;5034508;28;20044;-64
2022/02/14 07:53:28;;;;;;;15.10;6.93;;;;;;;-0.49;89.51;96001.00;5025735;28;20048;-66
2022/02/14 07:55:54;;;;;;;16.27;8.00;;;;;;;-0.23;87.67;96012.63;5016987;28;20041;-66
2022/02/14 07:58:19;;;;;;;16.50;7.53;;;;;;;-0.04;85.80;96015.06;5023154;28;20046;-66
2022/02/14 08:00:45;;;;;;;16.48;6.30;;;;;;;0.01;86.65;96021.38;5021937;28;20050;-64
2022/02/14 08:03:10;;;;;;;13.82;5.72;;;;;;;0.18;85.53;96013.31;5017289;28;20064;-65
2022/02/14 08:05:36;;;;;;;10.40;5.30;;;;;;;0.03;85.10;96011.88;5024092;28;20546;-66
2022/02/14 08:08:01;;;;;;;9.57;5.47;;;;;;;0.05;84.77;96008.88;5037162;28;20142;-63
2022/02/14 08:10:27;;;;;;;10.63;5.38;;;;;;;0.09;85.22;96007.94;5040855;28;20367;-64
2022/02/14 08:12:52;;;;;;;10.48;5.80;;;;;;;0.34;86.56;96017.13;5044492;28;20037;-62
2022/02/14 08:15:18;;;;;;;9.98;5.30;;;;;;;0.98;81.80;96012.16;5020059;28;20080;-64
2022/02/14 08:17:43;;;;;;;13.20;5.88;;;;;;;0.82;84.09;96004.56;5031482;28;20049;-66
2022/02/14 08:20:09;;;;;;;9.48;5.03;;;;;;;2.20;75.72;95996.13;5019027;28;20454;-64
2022/02/14 08:22:35;;;;;;;9.05;5.18;;;;;;;1.32;80.33;95993.13;5024213;28;20033;-65
2022/02/14 08:25:02;;;;;;;11.52;5.88;;;;;;;1.37;80.40;95992.19;5024915;28;20359;-65
2022/02/14 08:27:28;;;;;;;11.93;6.00;;;;;;;2.93;77.99;95985.94;5021838;28;20061;-65
2022/02/14 08:29:53;;;;;;;12.80;6.78;;;;;;;2.88;71.80;95981.50;5024494;28;20045;-65
2022/02/14 08:32:19;;;;;;;10.00;6.55;;;;;;;4.10;67.28;95971.84;5027005;28;20136;-65
2022/02/14 08:34:44;;;;;;;15.20;8.80;;;;;;;2.14;74.29;95970.41;5032164;28;20042;-64
2022/02/14 08:37:11;;;;;;;12.30;8.48;;;;;;;1.46;77.40;95965.13;5042621;28;20042;-65
2022/02/14 08:39:40;;;;;;;13.38;8.40;;;;;;;1.82;79.97;95958.41;5032863;28;20567;-64
2022/02/14 08:42:06;;;;;;;15.07;6.60;;;;;;;2.91;73.00;95951.09;5025236;28;20049;-65
2022/02/14 08:44:32;;;;;;;12.52;5.90;;;;;;;3.49;67.82;95950.25;5032248;28;20045;-65
2022/02/14 08:46:59;;;;;;;9.25;5.40;;;;;;;4.39;64.57;95953.69;5034334;28;20824;-65
2022/02/14 08:49:25;;;;;;;11.50;6.22;;;;;;;5.20;62.34;95955.44;5029926;28;20525;-66
2022/02/14 08:51:51;;;;;;;9.63;5.75;;;;;;;6.22;59.88;95952.00;5030078;28;20041;-65
2022/02/14 08:54:16;;;;;;;8.75;5.43;;;;;;;6.53;59.71;95944.84;5034751;28;20032;-65
2022/02/14 08:56:42;;;;;;;14.85;5.20;;;;;;;8.24;52.53;95946.09;5030504;28;20053;-65
2022/02/14 08:59:07;;;;;;;13.15;5.35;;;;;;;9.30;48.64;95953.16;5035009;28;20037;-64
2022/02/14 09:01:33;;;;;;;8.68;5.40;;;;;;;9.73;46.31;95967.19;5030441;28;20441;-65
2022/02/14 09:03:58;;;;;;;10.55;5.35;;;;;;;9.66;46.46;95958.94;5034309;28;20048;-65
2022/02/14 09:06:27;;;;;;;8.73;4.75;;;;;;;10.45;44.43;95954.00;5012677;28;20119;-64
2022/02/14 09:08:53;;;;;;;11.60;4.18;;;;;;;9.85;45.96;95949.72;5003065;28;20096;-65
2022/02/14 09:11:19;;;;;;;9.20;4.55;;;;;;;10.20;45.70;95944.84;5011985;28;20070;-64
2022/02/14 09:13:44;;;;;;;8.20;4.55;;;;;;;11.55;42.38;95940.19;5003834;28;20127;-64
2022/02/14 09:16:09;;;;;;;14.18;5.28;;;;;;;10.42;43.10;95937.56;5006486;28;20041;-65
2022/02/14 09:18:37;;;;;;;10.48;4.82;;;;;;;10.16;44.70;95928.41;5029806;28;20186;-63
2022/02/14 09:21:04;;;;;;;10.57;6.45;;;;;;;9.27;44.72;95934.00;5023160;28;20080;-65
2022/02/14 09:23:30;;;;;;;11.05;5.32;;;;;;;11.23;41.93;95936.22;5026645;28;20037;-66
2022/02/14 09:25:56;;;;;;;13.20;5.10;;;;;;;11.88;39.74;95929.97;5029600;28;20041;-64
2022/02/14 09:28:23;;;;;;;10.80;4.90;;;;;;;11.70;39.76;95930.78;5026092;28;21070;-64
2022/02/14 09:30:48;;;;;;;13.70;4.95;;;;;;;11.98;39.75;95931.97;5028727;28;20468;-65
2022/02/14 09:33:14;;;;;;;11.80;5.65;;;;;;;11.98;38.58;95924.50;5024981;28;20046;-64
2022/02/14 09:35:39;;;;;;;8.85;4.97;;;;;;;11.32;40.22;95916.66;5041086;28;20110;-64
2022/02/14 09:38:05;;;;;;;12.02;5.50;;;;;;;11.13;41.18;95923.31;5039278;28;20539;-64
2022/02/14 09:40:32;;;;;;;10.50;5.78;;;;;;;12.99;39.78;95919.44;5042496;28;20061;-64
2022/02/14 09:42:59;;;;;;;7.47;4.57;;;;;;;13.76;36.85;95923.25;5041658;28;20073;-64
2022/02/14 09:45:26;;;;;;;9.07;4.57;;;;;;;11.74;38.97;95923.34;5024209;28;20054;-64
2022/02/14 09:48:00;;;;;;;10.48;4.80;;;;;;;11.78;40.16;95923.34;5029382;28;20045;-64
2022/02/14 09:50:26;;;;;;;7.68;4.70;;;;;;;11.33;40.48;95912.00;5026712;28;20490;-64
2022/02/14 09:52:52;;;;;;;9.25;4.90;;;;;;;10.55;43.74;95918.84;5040784;28;20053;-66
2022/02/14 09:55:19;;;;;;;9.68;5.03;;;;;;;11.19;41.17;95907.25;5037633;28;20067;-64
2022/02/14 09:57:45;;;;;;;9.65;4.72;;;;;;;10.66;42.29;95917.72;5039826;28;20041;-64
2022/02/14 10:00:11;;;;;;;14.23;4.82;;;;;;;11.77;41.32;95913.53;5027300;28;20450;-65
2022/02/14 10:02:36;;;;;;;21.33;7.32;;;;;;;12.34;38.54;95918.16;5029472;28;20057;-64
2022/02/14 10:05:18;;;;;;;15.52;7.10;;;;;;;12.12;38.71;95915.47;5044358;28;20145;-64
2022/02/14 10:07:47;;;;;;;12.38;7.10;;;;;;;12.08;38.85;95933.13;5050894;28;20421;-63
2022/02/14 10:10:22;;;;;;;19.45;6.72;;;;;;;10.98;40.95;95932.66;5040916;28;20127;-64
2022/02/14 10:12:52;;;;;;;13.80;6.03;;;;;;;10.56;41.92;95929.41;5040297;28;20109;-65
2022/02/14 10:15:19;;;;;;;13.40;5.65;;;;;;;10.51;42.15;95927.03;5022583;28;20050;-65
2022/02/14 10:17:47;;;;;;;17.02;5.60;;;;;;;10.35;42.66;95930.09;5019052;28;20140;-65
2022/02/14 10:20:18;;;;;;;11.80;4.65;;;;;;;11.04;42.24;95922.91;5016852;28;20103;-67
2022/02/14 10:22:54;;;;;;;8.77;5.00;;;;;;;12.07;39.50;95910.38;5032937;28;20702;-67
2022/02/14 10:25:26;;;;;;;9.13;5.25;;;;;;;12.86;37.93;95912.84;5036869;28;20033;-64
2022/02/14 10:27:51;;;;;;;7.65;4.25;;;;;;;13.23;35.67;95907.91;5035939;28;20100;-65
2022/02/14 10:30:17;;;;;;;9.45;4.85;;;;;;;10.49;39.60;95900.03;5025650;28;20045;-65
2022/02/14 10:32:50;;;;;;;11.05;4.93;;;;;;;12.22;38.46;95898.16;5023335;28;20136;-63
2022/02/14 10:35:16;;;;;;;8.98;4.40;;;;;;;11.78;39.38;95895.91;5025715;28;20660;-63
2022/02/14 10:37:43;;;;;;;13.40;7.55;;;;;;;13.23;38.62;95903.19;5023640;28;20096;-64
2022/02/14 10:40:10;;;;;;;8.13;4.60;;;;;;;14.05;37.17;95890.72;5027852;28;20509;-67
2022/02/14 10:42:37;;;;;;;14.73;5.70;;;;;;;14.33;35.95;95892.41;5038593;28;20436;-66
2022/02/14 10:45:11;;;;;;;13.35;4.20;;;;;;;14.63;34.58;95890.88;5039246;28;20171;-66
2022/02/14 10:47:42;;;;;;;9.25;4.78;;;;;;;15.10;34.39;95888.28;5034118;28;20045;-65
2022/02/14 10:50:13;;;;;;;11.63;5.10;;;;;;;15.18;33.73;95888.19;5012400;28;20429;-66
2022/02/14 10:52:47;;;;;;;12.30;5.10;;;;;;;14.50;33.43;95892.59;5025926;28;20080;-67
2022/02/14 10:55:25;;;;;;;8.95;4.22;;;;;;;13.91;32.78;95890.88;5024958;28;20066;-66
2022/02/14 10:57:52;;;;;;;8.00;3.92;;;;;;;12.99;35.00;95886.44;5033054;28;20048;-66
2022/02/14 11:00:20;;;;;;;9.10;4.57;;;;;;;11.07;38.52;95889.22;5022390;28;20128;-66
2022/02/14 11:02:52;;;;;;;11.93;5.10;;;;;;;11.41;41.40;95886.13;5033013;28;20060;-65
2022/02/14 11:05:20;;;;;;;10.73;5.95;;;;;;;10.74;44.39;95887.59;5034720;28;20040;-66
2022/02/14 11:07:46;;;;;;;11.63;6.13;;;;;;;11.29;43.17;95892.78;5040855;28;20041;-65
2022/02/14 11:10:15;;;;;;;11.65;7.05;;;;;;;11.03;42.43;95891.19;5050758;28;20041;-66
2022/02/14 11:12:48;;;;;;;12.70;5.30;;;;;;;10.74;42.65;95877.44;5041134;28;20501;-64
2022/02/14 11:15:14;;;;;;;9.30;5.45;;;;;;;10.82;43.11;95876.28;5023427;28;20130;-66
2022/02/14 11:17:48;;;;;;;15.85;6.05;;;;;;;11.09;42.21;95863.03;5031839;28;20084;-64
2022/02/14 11:20:15;;;;;;;11.23;5.68;;;;;;;10.27;45.04;95865.53;5036423;28;20393;-65
2022/02/14 11:22:46;;;;;;;10.05;5.75;;;;;;;10.41;44.98;95862.09;5041194;28;20128;-67
2022/02/14 11:25:45;;;;;;;11.38;4.60;;;;;;;10.83;41.82;95868.84;5035557;28;20041;-67